sensor_id;sensor_type;location;lat;lon;timestamp;pressure;altitude;pressure_sealevel;temperature;humidity
19795;BME280;10057;59.402;17.866;2024-03-25T00:02:00;99956.91;;;1.06;64.56
19795;BME280;10057;59.402;17.866;2024-03-25T00:04:26;99956.91;;;1.06;64.63
19795;BME280;10057;59.402;17.866;2024-03-25T00:06:52;99957.81;;;1.05;64.70
19795;BME280;10057;59.402;17.866;2024-03-25T00:09:18;99958.66;;;1.07;64.88
19795;BME280;10057;59.402;17.866;2024-03-25T00:11:44;99958.66;;;1.07;64.71
19795;BME280;10057;59.402;17.866;2024-03-25T00:14:09;99965.59;;;1.08;64.84
19795;BME280;10057;59.402;17.866;2024-03-25T00:16:35;99963.88;;;1.07;64.55
19795;BME280;10057;59.402;17.866;2024-03-25T00:19:01;99962.13;;;1.06;64.73
19795;BME280;10057;59.402;17.866;2024-03-25T00:21:27;99962.13;;;1.06;64.71
19795;BME280;10057;59.402;17.866;2024-03-25T00:23:53;99965.59;;;1.08;64.69
19795;BME280;10057;59.402;17.866;2024-03-25T00:26:24;99965.63;;;1.05;64.65
19795;BME280;10057;59.402;17.866;2024-03-25T00:28:50;99969.13;;;1.07;65.03
19795;BME280;10057;59.402;17.866;2024-03-25T00:31:16;99972.56;;;1.09;64.78
19795;BME280;10057;59.402;17.866;2024-03-25T00:33:42;99984.75;;;1.10;64.83
19795;BME280;10057;59.402;17.866;2024-03-25T00:36:07;99981.28;;;1.08;64.75
19795;BME280;10057;59.402;17.866;2024-03-25T00:38:33;99979.53;;;1.10;64.90
19795;BME280;10057;59.402;17.866;2024-03-25T00:40:59;99981.25;;;1.11;65.06
19795;BME280;10057;59.402;17.866;2024-03-25T00:43:24;99981.25;;;1.11;65.00
19795;BME280;10057;59.402;17.866;2024-03-25T00:45:50;99976.03;;;1.11;64.85
19795;BME280;10057;59.402;17.866;2024-03-25T00:48:16;99972.53;;;1.12;64.99
19795;BME280;10057;59.402;17.866;2024-03-25T00:50:42;99969.91;;;1.13;65.07
19795;BME280;10057;59.402;17.866;2024-03-25T00:53:08;99972.53;;;1.13;65.08
19795;BME280;10057;59.402;17.866;2024-03-25T00:55:34;99969.06;;;1.13;64.85
19795;BME280;10057;59.402;17.866;2024-03-25T00:58:03;99975.97;;;1.17;65.02
19795;BME280;10057;59.402;17.866;2024-03-25T01:00:29;99976.00;;;1.14;65.03
19795;BME280;10057;59.402;17.866;2024-03-25T01:02:55;99979.41;;;1.19;65.37
19795;BME280;10057;59.402;17.866;2024-03-25T01:05:21;99984.63;;;1.19;64.88
19795;BME280;10057;59.402;17.866;2024-03-25T01:07:47;99982.03;;;1.19;65.08
19795;BME280;10057;59.402;17.866;2024-03-25T01:10:13;99984.63;;;1.19;65.00
19795;BME280;10057;59.402;17.866;2024-03-25T01:12:38;99996.84;;;1.20;65.22
19795;BME280;10057;59.402;17.866;2024-03-25T01:15:04;99983.75;;;1.22;65.23
19795;BME280;10057;59.402;17.866;2024-03-25T01:17:31;99984.63;;;1.21;65.20
19795;BME280;10057;59.402;17.866;2024-03-25T01:19:56;99978.53;;;1.23;65.15
19795;BME280;10057;59.402;17.866;2024-03-25T01:22:22;99987.22;;;1.22;64.97
19795;BME280;10057;59.402;17.866;2024-03-25T01:24:48;99988.97;;;1.23;65.16
19795;BME280;10057;59.402;17.866;2024-03-25T01:27:14;99989.84;;;1.22;65.30
19795;BME280;10057;59.402;17.866;2024-03-25T01:29:39;99988.09;;;1.19;65.31
19795;BME280;10057;59.402;17.866;2024-03-25T01:32:05;99989.00;;;1.18;65.07
19795;BME280;10057;59.402;17.866;2024-03-25T01:34:31;99983.84;;;1.12;65.00
19795;BME280;10057;59.402;17.866;2024-03-25T01:36:57;99991.69;;;1.11;65.47
19795;BME280;10057;59.402;17.866;2024-03-25T01:39:23;99989.13;;;1.08;65.55
19795;BME280;10057;59.402;17.866;2024-03-25T01:41:50;99991.69;;;1.11;65.38
19795;BME280;10057;59.402;17.866;2024-03-25T01:44:16;99984.75;;;1.10;65.33
19795;BME280;10057;59.402;17.866;2024-03-25T01:46:42;99989.94;;;1.13;65.37
19795;BME280;10057;59.402;17.866;2024-03-25T01:49:08;99988.16;;;1.15;65.17
19795;BME280;10057;59.402;17.866;2024-03-25T01:51:34;99989.91;;;1.14;65.66
19795;BME280;10057;59.402;17.866;2024-03-25T01:54:01;99989.94;;;1.13;65.36
19795;BME280;10057;59.402;17.866;2024-03-25T01:56:31;99985.63;;;1.09;65.44
19795;BME280;10057;59.402;17.866;2024-03-25T01:58:59;99984.75;;;1.10;65.32
19795;BME280;10057;59.402;17.866;2024-03-25T02:01:26;99983.91;;;1.08;65.27
19795;BME280;10057;59.402;17.866;2024-03-25T02:03:53;99978.69;;;1.05;65.47
19795;BME280;10057;59.402;17.866;2024-03-25T02:06:19;99982.19;;;1.04;65.36
19795;BME280;10057;59.402;17.866;2024-03-25T02:08:48;99981.31;;;1.05;65.55
19795;BME280;10057;59.402;17.866;2024-03-25T02:11:15;99984.84;;;1.01;65.33
19795;BME280;10057;59.402;17.866;2024-03-25T02:13:41;99989.19;;;1.02;65.60
19795;BME280;10057;59.402;17.866;2024-03-25T02:16:07;99985.69;;;1.01;65.52
19795;BME280;10057;59.402;17.866;2024-03-25T02:18:33;99986.59;;;0.99;65.42
19795;BME280;10057;59.402;17.866;2024-03-25T02:20:59;99986.63;;;0.97;65.54
19795;BME280;10057;59.402;17.866;2024-03-25T02:23:26;99980.56;;;0.93;65.44
19795;BME280;10057;59.402;17.866;2024-03-25T02:25:53;99987.53;;;0.91;65.67
19795;BME280;10057;59.402;17.866;2024-03-25T02:28:19;99991.94;;;0.89;65.40
19795;BME280;10057;59.402;17.866;2024-03-25T02:30:45;99982.38;;;0.85;65.47
19795;BME280;10057;59.402;17.866;2024-03-25T02:33:11;99985.91;;;0.83;65.44
19795;BME280;10057;59.402;17.866;2024-03-25T02:35:38;99991.94;;;0.85;65.55
19795;BME280;10057;59.402;17.866;2024-03-25T02:38:05;99992.84;;;0.84;65.59
19795;BME280;10057;59.402;17.866;2024-03-25T02:40:31;100001.53;;;0.84;65.58
19795;BME280;10057;59.402;17.866;2024-03-25T02:42:57;99995.44;;;0.84;65.75
19795;BME280;10057;59.402;17.866;2024-03-25T02:45:23;99998.94;;;0.84;65.62
19795;BME280;10057;59.402;17.866;2024-03-25T02:47:50;100001.53;;;0.84;65.75
19795;BME280;10057;59.402;17.866;2024-03-25T02:50:16;100002.41;;;0.86;65.84
19795;BME280;10057;59.402;17.866;2024-03-25T02:52:42;100004.13;;;0.87;65.43
19795;BME280;10057;59.402;17.866;2024-03-25T02:55:08;100006.72;;;0.90;65.46
19795;BME280;10057;59.402;17.866;2024-03-25T02:57:33;100009.31;;;0.90;65.65
19795;BME280;10057;59.402;17.866;2024-03-25T02:59:59;100005.81;;;0.91;65.85
19795;BME280;10057;59.402;17.866;2024-03-25T03:02:25;100006.69;;;0.92;65.64
19795;BME280;10057;59.402;17.866;2024-03-25T03:04:50;100004.06;;;0.93;66.07
19795;BME280;10057;59.402;17.866;2024-03-25T03:07:16;100008.41;;;0.94;65.61
19795;BME280;10057;59.402;17.866;2024-03-25T03:09:42;100010.13;;;0.95;65.81
19795;BME280;10057;59.402;17.866;2024-03-25T03:12:08;100001.44;;;0.95;65.77
19795;BME280;10057;59.402;17.866;2024-03-25T03:14:34;100018.81;;;0.98;65.73
19795;BME280;10057;59.402;17.866;2024-03-25T03:16:59;100017.97;;;0.95;65.77
19795;BME280;10057;59.402;17.866;2024-03-25T03:19:30;100018.88;;;0.93;65.95
19795;BME280;10057;59.402;17.866;2024-03-25T03:21:56;100011.03;;;0.91;65.59
19795;BME280;10057;59.402;17.866;2024-03-25T03:24:22;100018.03;;;0.92;65.74
19795;BME280;10057;59.402;17.866;2024-03-25T03:26:48;100020.63;;;0.92;66.07
19795;BME280;10057;59.402;17.866;2024-03-25T03:29:14;100021.50;;;0.91;65.73
19795;BME280;10057;59.402;17.866;2024-03-25T03:31:40;100023.25;;;0.92;65.99
19795;BME280;10057;59.402;17.866;2024-03-25T03:34:06;100021.50;;;0.93;65.82
19795;BME280;10057;59.402;17.866;2024-03-25T03:36:32;100021.50;;;0.91;66.00
19795;BME280;10057;59.402;17.866;2024-03-25T03:38:58;100028.44;;;0.94;65.94
19795;BME280;10057;59.402;17.866;2024-03-25T03:41:23;100027.56;;;0.93;65.82
19795;BME280;10057;59.402;17.866;2024-03-25T03:43:49;100031.94;;;0.91;66.13
19795;BME280;10057;59.402;17.866;2024-03-25T03:46:14;100026.72;;;0.91;65.85
19795;BME280;10057;59.402;17.866;2024-03-25T03:48:40;100032.84;;;0.87;66.11
19795;BME280;10057;59.402;17.866;2024-03-25T03:51:07;100031.09;;;0.88;65.86
19795;BME280;10057;59.402;17.866;2024-03-25T03:53:33;100024.19;;;0.84;66.21
19795;BME280;10057;59.402;17.866;2024-03-25T03:56:04;100035.47;;;0.87;66.50
19795;BME280;10057;59.402;17.866;2024-03-25T03:58:31;100033.72;;;0.88;66.02
19795;BME280;10057;59.402;17.866;2024-03-25T04:00:57;100034.56;;;0.88;66.02
19795;BME280;10057;59.402;17.866;2024-03-25T04:03:23;100043.28;;;0.90;66.05
19795;BME280;10057;59.402;17.866;2024-03-25T04:05:48;100034.53;;;0.91;66.17
19795;BME280;10057;59.402;17.866;2024-03-25T04:08:14;100039.78;;;0.93;66.01
19795;BME280;10057;59.402;17.866;2024-03-25T04:10:40;100037.13;;;0.94;65.98
19795;BME280;10057;59.402;17.866;2024-03-25T04:13:07;100044.97;;;0.94;66.21
19795;BME280;10057;59.402;17.866;2024-03-25T04:15:34;100040.63;;;0.93;66.35
19795;BME280;10057;59.402;17.866;2024-03-25T04:17:59;100051.88;;;0.99;66.10
19795;BME280;10057;59.402;17.866;2024-03-25T04:20:27;100054.50;;;1.00;66.30
19795;BME280;10057;59.402;17.866;2024-03-25T04:22:54;100056.25;;;1.00;66.26
19795;BME280;10057;59.402;17.866;2024-03-25T04:25:21;100054.47;;;1.02;66.37
19795;BME280;10057;59.402;17.866;2024-03-25T04:27:46;100059.69;;;1.02;66.16
19795;BME280;10057;59.402;17.866;2024-03-25T04:30:12;100054.47;;;1.02;66.38
19795;BME280;10057;59.402;17.866;2024-03-25T04:32:38;100065.78;;;1.04;66.59
19795;BME280;10057;59.402;17.866;2024-03-25T04:35:08;100069.25;;;1.06;66.46
19795;BME280;10057;59.402;17.866;2024-03-25T04:37:34;100074.47;;;1.07;66.29
19795;BME280;10057;59.402;17.866;2024-03-25T04:40:00;100067.53;;;1.06;66.32
19795;BME280;10057;59.402;17.866;2024-03-25T04:42:26;100070.09;;;1.08;66.09
19795;BME280;10057;59.402;17.866;2024-03-25T04:44:51;100066.59;;;1.09;65.95
19795;BME280;10057;59.402;17.866;2024-03-25T04:47:17;100072.69;;;1.11;66.72
19795;BME280;10057;59.402;17.866;2024-03-25T04:49:44;100069.19;;;1.12;66.45
19795;BME280;10057;59.402;17.866;2024-03-25T04:52:12;100067.44;;;1.12;66.45
19795;BME280;10057;59.402;17.866;2024-03-25T04:54:41;100061.34;;;1.12;66.50
19795;BME280;10057;59.402;17.866;2024-03-25T04:57:06;100072.63;;;1.17;66.53
19795;BME280;10057;59.402;17.866;2024-03-25T04:59:32;100072.63;;;1.17;66.43
19795;BME280;10057;59.402;17.866;2024-03-25T05:01:59;100076.09;;;1.19;66.23
19795;BME280;10057;59.402;17.866;2024-03-25T05:04:24;100070.00;;;1.20;66.34
19795;BME280;10057;59.402;17.866;2024-03-25T05:06:50;100078.69;;;1.21;66.43
19795;BME280;10057;59.402;17.866;2024-03-25T05:09:16;100083.06;;;1.18;66.65
19795;BME280;10057;59.402;17.866;2024-03-25T05:11:42;100080.47;;;1.17;66.55
19795;BME280;10057;59.402;17.866;2024-03-25T05:14:08;100081.34;;;1.17;66.38
19795;BME280;10057;59.402;17.866;2024-03-25T05:16:33;100079.63;;;1.16;66.51
19795;BME280;10057;59.402;17.866;2024-03-25T05:18:59;100088.34;;;1.14;66.74
19795;BME280;10057;59.402;17.866;2024-03-25T05:21:25;100081.41;;;1.13;66.50
19795;BME280;10057;59.402;17.866;2024-03-25T05:23:50;100084.00;;;1.13;67.12
19795;BME280;10057;59.402;17.866;2024-03-25T05:26:16;100080.50;;;1.12;66.77
19795;BME280;10057;59.402;17.866;2024-03-25T05:28:42;100082.22;;;1.15;66.64
19795;BME280;10057;59.402;17.866;2024-03-25T05:31:08;100090.94;;;1.17;66.62
19795;BME280;10057;59.402;17.866;2024-03-25T05:33:34;100087.44;;;1.15;66.75
19795;BME280;10057;59.402;17.866;2024-03-25T05:36:01;100101.38;;;1.17;66.44
19795;BME280;10057;59.402;17.866;2024-03-25T05:38:27;100095.28;;;1.15;66.71
19795;BME280;10057;59.402;17.866;2024-03-25T05:40:53;100101.44;;;1.11;66.77
19795;BME280;10057;59.402;17.866;2024-03-25T05:43:19;100097.06;;;1.13;66.91
19795;BME280;10057;59.402;17.866;2024-03-25T05:45:53;100097.94;;;1.12;66.50
19795;BME280;10057;59.402;17.866;2024-03-25T05:48:20;100094.50;;;1.07;66.57
19795;BME280;10057;59.402;17.866;2024-03-25T05:50:45;100100.59;;;1.07;66.61
19795;BME280;10057;59.402;17.866;2024-03-25T05:53:11;100096.25;;;1.06;66.92
19795;BME280;10057;59.402;17.866;2024-03-25T05:55:37;100098.88;;;1.05;66.96
19795;BME280;10057;59.402;17.866;2024-03-25T05:58:03;100097.13;;;1.02;66.82
19795;BME280;10057;59.402;17.866;2024-03-25T06:00:29;100097.16;;;1.01;66.69
19795;BME280;10057;59.402;17.866;2024-03-25T06:02:56;100101.53;;;0.99;66.65
19795;BME280;10057;59.402;17.866;2024-03-25T06:05:22;100110.22;;;0.99;66.91
19795;BME280;10057;59.402;17.866;2024-03-25T06:07:48;100102.38;;;1.04;66.71
19795;BME280;10057;59.402;17.866;2024-03-25T06:10:13;100107.53;;;1.08;67.12
19795;BME280;10057;59.402;17.866;2024-03-25T06:12:39;100101.44;;;1.11;66.82
19795;BME280;10057;59.402;17.866;2024-03-25T06:15:05;100114.41;;;1.18;66.84
19795;BME280;10057;59.402;17.866;2024-03-25T06:17:31;100117.88;;;1.22;66.73
19795;BME280;10057;59.402;17.866;2024-03-25T06:19:57;100122.19;;;1.26;66.91
19795;BME280;10057;59.402;17.866;2024-03-25T06:22:23;100123.84;;;1.33;66.99
19795;BME280;10057;59.402;17.866;2024-03-25T06:24:49;100119.41;;;1.45;67.12
19795;BME280;10057;59.402;17.866;2024-03-25T06:27:16;100123.63;;;1.61;67.14
19795;BME280;10057;59.402;17.866;2024-03-25T06:29:42;100126.13;;;1.72;67.08
19795;BME280;10057;59.402;17.866;2024-03-25T06:32:09;100122.44;;;1.86;67.17
19795;BME280;10057;59.402;17.866;2024-03-25T06:34:53;100120.56;;;1.99;66.92
19795;BME280;10057;59.402;17.866;2024-03-25T06:37:19;100120.44;;;2.08;67.16
19795;BME280;10057;59.402;17.866;2024-03-25T06:39:44;100131.59;;;2.24;67.00
19795;BME280;10057;59.402;17.866;2024-03-25T06:42:10;100132.34;;;2.32;67.26
19795;BME280;10057;59.402;17.866;2024-03-25T06:44:36;100139.25;;;2.40;67.07
19795;BME280;10057;59.402;17.866;2024-03-25T06:47:02;100133.03;;;2.47;67.07
19795;BME280;10057;59.402;17.866;2024-03-25T06:49:28;100130.28;;;2.56;67.12
19795;BME280;10057;59.402;17.866;2024-03-25T06:51:54;100137.97;;;2.68;66.65
19795;BME280;10057;59.402;17.866;2024-03-25T06:54:20;100143.09;;;2.77;66.60
19795;BME280;10057;59.402;17.866;2024-03-25T06:56:45;100137.72;;;2.83;66.88
19795;BME280;10057;59.402;17.866;2024-03-25T06:59:11;100148.94;;;2.95;66.96
19795;BME280;10057;59.402;17.866;2024-03-25T07:01:36;100143.53;;;3.04;66.64
19795;BME280;10057;59.402;17.866;2024-03-25T07:04:02;100144.25;;;3.15;66.63
19795;BME280;10057;59.402;17.866;2024-03-25T07:06:28;100154.59;;;3.21;66.89
19795;BME280;10057;59.402;17.866;2024-03-25T07:08:54;100152.69;;;3.31;66.96
19795;BME280;10057;59.402;17.866;2024-03-25T07:11:20;100149.00;;;3.43;66.79
19795;BME280;10057;59.402;17.866;2024-03-25T07:13:46;100153.22;;;3.53;66.73
19795;BME280;10057;59.402;17.866;2024-03-25T07:16:11;100154.69;;;3.68;66.81
19795;BME280;10057;59.402;17.866;2024-03-25T07:18:37;100156.16;;;3.83;66.52
19795;BME280;10057;59.402;17.866;2024-03-25T07:21:03;100159.44;;;3.94;66.56
19795;BME280;10057;59.402;17.866;2024-03-25T07:23:29;100163.56;;;4.07;66.41
19795;BME280;10057;59.402;17.866;2024-03-25T07:25:54;100162.50;;;4.17;66.27
19795;BME280;10057;59.402;17.866;2024-03-25T07:28:20;100160.53;;;4.27;66.51
19795;BME280;10057;59.402;17.866;2024-03-25T07:30:46;100158.50;;;4.41;66.29
19795;BME280;10057;59.402;17.866;2024-03-25T07:33:12;100158.22;;;4.54;65.91
19795;BME280;10057;59.402;17.866;2024-03-25T07:35:38;100173.75;;;4.64;66.09
19795;BME280;10057;59.402;17.866;2024-03-25T07:38:03;100170.00;;;4.76;65.82
19795;BME280;10057;59.402;17.866;2024-03-25T07:40:29;100168.84;;;4.88;65.98
19795;BME280;10057;59.402;17.866;2024-03-25T07:42:55;100175.63;;;4.98;65.55
19795;BME280;10057;59.402;17.866;2024-03-25T07:45:22;100189.28;;;5.12;65.49
19795;BME280;10057;59.402;17.866;2024-03-25T07:47:47;100184.66;;;5.23;65.49
19795;BME280;10057;59.402;17.866;2024-03-25T07:50:13;100176.59;;;5.30;65.36
19795;BME280;10057;59.402;17.866;2024-03-25T07:52:40;100186.97;;;5.36;65.06
19795;BME280;10057;59.402;17.866;2024-03-25T07:55:09;100183.41;;;5.38;65.09
19795;BME280;10057;59.402;17.866;2024-03-25T07:57:35;100178.03;;;5.43;65.02
19795;BME280;10057;59.402;17.866;2024-03-25T08:00:01;100187.63;;;5.45;65.09
19795;BME280;10057;59.402;17.866;2024-03-25T08:02:30;100191.91;;;5.50;64.42
19795;BME280;10057;59.402;17.866;2024-03-25T08:04:56;100190.97;;;5.52;64.24
19795;BME280;10057;59.402;17.866;2024-03-25T08:07:21;100196.22;;;5.52;64.46
19795;BME280;10057;59.402;17.866;2024-03-25T08:09:47;100197.16;;;5.51;64.28
19795;BME280;10057;59.402;17.866;2024-03-25T08:12:13;100199.84;;;5.48;64.59
19795;BME280;10057;59.402;17.866;2024-03-25T08:14:38;100196.38;;;5.46;64.63
19795;BME280;10057;59.402;17.866;2024-03-25T08:17:04;100202.50;;;5.46;64.20
19795;BME280;10057;59.402;17.866;2024-03-25T08:19:30;100201.63;;;5.46;64.37
19795;BME280;10057;59.402;17.866;2024-03-25T08:21:57;100199.94;;;5.43;63.93
19795;BME280;10057;59.402;17.866;2024-03-25T08:24:23;100205.09;;;5.48;63.96
19795;BME280;10057;59.402;17.866;2024-03-25T08:26:49;100204.19;;;5.49;63.78
19795;BME280;10057;59.402;17.866;2024-03-25T08:29:14;100213.81;;;5.50;63.60
19795;BME280;10057;59.402;17.866;2024-03-25T08:31:40;100211.09;;;5.53;64.46
19795;BME280;10057;59.402;17.866;2024-03-25T08:34:06;100210.16;;;5.57;63.74
19795;BME280;10057;59.402;17.866;2024-03-25T08:36:32;100215.25;;;5.63;63.73
19795;BME280;10057;59.402;17.866;2024-03-25T08:38:58;100213.44;;;5.65;63.42
19795;BME280;10057;59.402;17.866;2024-03-25T08:41:23;100215.00;;;5.73;63.32
19795;BME280;10057;59.402;17.866;2024-03-25T08:43:49;100210.41;;;5.81;63.83
19795;BME280;10057;59.402;17.866;2024-03-25T08:46:15;100211.94;;;5.89;63.67
19795;BME280;10057;59.402;17.866;2024-03-25T08:48:40;100216.94;;;6.00;63.25
19795;BME280;10057;59.402;17.866;2024-03-25T08:51:06;100209.63;;;6.11;62.77
19795;BME280;10057;59.402;17.866;2024-03-25T08:53:32;100218.13;;;6.21;62.87
19795;BME280;10057;59.402;17.866;2024-03-25T08:55:58;100221.47;;;6.28;62.42
19795;BME280;10057;59.402;17.866;2024-03-25T08:58:24;100216.06;;;6.32;62.32
19795;BME280;10057;59.402;17.866;2024-03-25T09:00:51;100213.41;;;6.34;62.28
19795;BME280;10057;59.402;17.866;2024-03-25T09:03:16;100228.28;;;6.36;62.45
19795;BME280;10057;59.402;17.866;2024-03-25T09:05:42;100228.28;;;6.36;62.33
19795;BME280;10057;59.402;17.866;2024-03-25T09:08:08;100221.22;;;6.37;62.04
19795;BME280;10057;59.402;17.866;2024-03-25T09:10:37;100224.63;;;6.40;61.81
19795;BME280;10057;59.402;17.866;2024-03-25T09:13:21;100228.91;;;6.45;62.33
19795;BME280;10057;59.402;17.866;2024-03-25T09:15:49;100229.75;;;6.45;62.07
19795;BME280;10057;59.402;17.866;2024-03-25T09:18:14;100221.78;;;6.48;62.36
19795;BME280;10057;59.402;17.866;2024-03-25T09:20:40;100221.19;;;6.68;61.92
19795;BME280;10057;59.402;17.866;2024-03-25T09:23:06;100219.44;;;6.98;62.11
19795;BME280;10057;59.402;17.866;2024-03-25T09:25:33;100222.66;;;7.34;62.10
19795;BME280;10057;59.402;17.866;2024-03-25T09:27:58;100224.84;;;7.76;61.79
19795;BME280;10057;59.402;17.866;2024-03-25T09:30:24;100220.78;;;8.16;61.38
19795;BME280;10057;59.402;17.866;2024-03-25T09:32:50;100215.88;;;8.56;60.97
19795;BME280;10057;59.402;17.866;2024-03-25T09:35:15;100217.06;;;8.94;60.87
19795;BME280;10057;59.402;17.866;2024-03-25T09:37:41;100228.13;;;9.27;60.15
19795;BME280;10057;59.402;17.866;2024-03-25T09:40:08;100213.94;;;9.50;60.14
19795;BME280;10057;59.402;17.866;2024-03-25T09:42:52;100224.84;;;9.64;59.39
19795;BME280;10057;59.402;17.866;2024-03-25T09:45:24;100225.59;;;9.68;59.06
19795;BME280;10057;59.402;17.866;2024-03-25T09:47:51;100221.19;;;9.67;59.02
19795;BME280;10057;59.402;17.866;2024-03-25T09:50:17;100232.50;;;9.70;58.61
19795;BME280;10057;59.402;17.866;2024-03-25T09:52:46;100232.47;;;9.72;58.65
19795;BME280;10057;59.402;17.866;2024-03-25T09:55:12;100231.53;;;9.73;58.57
19795;BME280;10057;59.402;17.866;2024-03-25T09:57:38;100232.22;;;9.78;58.28
19795;BME280;10057;59.402;17.866;2024-03-25T10:00:09;100225.78;;;9.84;58.31
19795;BME280;10057;59.402;17.866;2024-03-25T10:02:37;100228.78;;;9.96;57.88
19795;BME280;10057;59.402;17.866;2024-03-25T10:05:05;100236.22;;;10.09;57.34
19795;BME280;10057;59.402;17.866;2024-03-25T10:07:31;100234.88;;;10.19;57.17
19795;BME280;10057;59.402;17.866;2024-03-25T10:09:56;100232.97;;;10.23;56.70
19795;BME280;10057;59.402;17.866;2024-03-25T10:12:26;100231.34;;;10.18;56.90
19795;BME280;10057;59.402;17.866;2024-03-25T10:14:52;100226.50;;;10.08;56.79
19795;BME280;10057;59.402;17.866;2024-03-25T10:17:18;100237.59;;;9.97;56.66
19795;BME280;10057;59.402;17.866;2024-03-25T10:19:44;100232.81;;;9.85;56.55
19795;BME280;10057;59.402;17.866;2024-03-25T10:22:09;100235.78;;;9.77;56.55
19795;BME280;10057;59.402;17.866;2024-03-25T10:24:45;100247.63;;;9.68;56.52
19795;BME280;10057;59.402;17.866;2024-03-25T10:27:23;100237.53;;;9.56;56.67
19795;BME280;10057;59.402;17.866;2024-03-25T10:29:54;100240.50;;;9.48;56.93
19795;BME280;10057;59.402;17.866;2024-03-25T10:32:23;100252.28;;;9.40;56.55
19795;BME280;10057;59.402;17.866;2024-03-25T10:34:54;100253.44;;;9.34;56.97
19795;BME280;10057;59.402;17.866;2024-03-25T10:37:21;100245.72;;;9.28;56.37
19795;BME280;10057;59.402;17.866;2024-03-25T10:39:50;100252.81;;;9.28;56.46
19795;BME280;10057;59.402;17.866;2024-03-25T10:42:21;100253.53;;;9.31;56.36
19795;BME280;10057;59.402;17.866;2024-03-25T10:44:47;100248.13;;;9.34;56.83
19795;BME280;10057;59.402;17.866;2024-03-25T10:47:18;100249.84;;;9.35;56.12
19795;BME280;10057;59.402;17.866;2024-03-25T10:49:56;100247.31;;;9.32;56.33
19795;BME280;10057;59.402;17.866;2024-03-25T10:52:23;100252.63;;;9.32;56.09
19795;BME280;10057;59.402;17.866;2024-03-25T10:54:49;100255.25;;;9.32;56.02
19795;BME280;10057;59.402;17.866;2024-03-25T10:57:16;100255.13;;;9.35;56.15
19795;BME280;10057;59.402;17.866;2024-03-25T10:59:45;100247.91;;;9.40;56.25
19795;BME280;10057;59.402;17.866;2024-03-25T11:02:12;100245.25;;;9.40;55.70
19795;BME280;10057;59.402;17.866;2024-03-25T11:04:38;100258.34;;;9.43;55.37
19795;BME280;10057;59.402;17.866;2024-03-25T11:07:10;100257.47;;;9.43;55.42
19795;BME280;10057;59.402;17.866;2024-03-25T11:09:36;100254.22;;;9.36;55.57
19795;BME280;10057;59.402;17.866;2024-03-25T11:12:03;100253.44;;;9.34;55.67
19795;BME280;10057;59.402;17.866;2024-03-25T11:14:28;100255.50;;;9.26;55.04
19795;BME280;10057;59.402;17.866;2024-03-25T11:16:55;100255.75;;;9.20;55.75
19795;BME280;10057;59.402;17.866;2024-03-25T11:19:25;100260.44;;;9.13;55.92
19795;BME280;10057;59.402;17.866;2024-03-25T11:21:51;100250.00;;;9.09;55.52
19795;BME280;10057;59.402;17.866;2024-03-25T11:24:37;100248.28;;;9.08;55.58
19795;BME280;10057;59.402;17.866;2024-03-25T11:27:07;100250.81;;;9.11;55.53
19795;BME280;10057;59.402;17.866;2024-03-25T11:29:33;100251.63;;;9.13;55.51
19795;BME280;10057;59.402;17.866;2024-03-25T11:32:03;100252.28;;;9.18;55.30
19795;BME280;10057;59.402;17.866;2024-03-25T11:34:29;100259.19;;;9.22;55.04
19795;BME280;10057;59.402;17.866;2024-03-25T11:36:55;100253.13;;;9.20;55.54
19795;BME280;10057;59.402;17.866;2024-03-25T11:39:23;100269.53;;;9.28;55.43
19795;BME280;10057;59.402;17.866;2024-03-25T11:41:49;100263.31;;;9.29;54.72
19795;BME280;10057;59.402;17.866;2024-03-25T11:44:16;100258.72;;;9.34;55.03
19795;BME280;10057;59.402;17.866;2024-03-25T11:46:43;100269.06;;;9.40;54.74
19795;BME280;10057;59.402;17.866;2024-03-25T11:49:13;100258.28;;;9.45;54.75
19795;BME280;10057;59.402;17.866;2024-03-25T11:51:40;100264.00;;;9.56;55.07
19795;BME280;10057;59.402;17.866;2024-03-25T11:54:09;100249.47;;;9.66;54.92
19795;BME280;10057;59.402;17.866;2024-03-25T11:56:36;100250.63;;;9.81;55.03
19795;BME280;10057;59.402;17.866;2024-03-25T11:59:03;100254.53;;;9.93;54.46
19795;BME280;10057;59.402;17.866;2024-03-25T12:01:32;100255.78;;;10.05;54.51
19795;BME280;10057;59.402;17.866;2024-03-25T12:04:11;100252.13;;;10.09;54.17
19795;BME280;10057;59.402;17.866;2024-03-25T12:06:37;100252.13;;;10.09;54.36
19795;BME280;10057;59.402;17.866;2024-03-25T12:09:03;100254.78;;;10.09;53.68
19795;BME280;10057;59.402;17.866;2024-03-25T12:11:47;100250.66;;;10.02;54.12
19795;BME280;10057;59.402;17.866;2024-03-25T12:14:13;100260.56;;;9.96;54.11
19795;BME280;10057;59.402;17.866;2024-03-25T12:16:40;100258.19;;;9.90;53.76
19795;BME280;10057;59.402;17.866;2024-03-25T12:19:06;100255.00;;;9.82;53.70
19795;BME280;10057;59.402;17.866;2024-03-25T12:21:31;100254.44;;;9.74;53.99
19795;BME280;10057;59.402;17.866;2024-03-25T12:23:57;100261.94;;;9.64;53.51
19795;BME280;10057;59.402;17.866;2024-03-25T12:26:24;100267.59;;;9.55;53.62
19795;BME280;10057;59.402;17.866;2024-03-25T12:28:49;100269.97;;;9.39;53.54
19795;BME280;10057;59.402;17.866;2024-03-25T12:31:15;100261.78;;;9.23;54.21
19795;BME280;10057;59.402;17.866;2024-03-25T12:33:42;100269.25;;;9.12;53.78
19795;BME280;10057;59.402;17.866;2024-03-25T12:36:11;100266.94;;;9.05;54.60
19795;BME280;10057;59.402;17.866;2024-03-25T12:38:37;100262.50;;;9.05;54.29
19795;BME280;10057;59.402;17.866;2024-03-25T12:41:04;100257.91;;;9.10;54.72
19795;BME280;10057;59.402;17.866;2024-03-25T12:43:34;100261.06;;;9.20;53.95
19795;BME280;10057;59.402;17.866;2024-03-25T12:46:01;100265.97;;;9.29;54.22
19795;BME280;10057;59.402;17.866;2024-03-25T12:48:26;100265.00;;;9.32;53.75
19795;BME280;10057;59.402;17.866;2024-03-25T12:50:52;100260.66;;;9.29;53.74